sensor_id;sensor_type;location;lat;lon;timestamp;P1;durP1;ratioP1;P2;durP2;ratioP2
51292;SDS011;37377;45.186;9.778;2023-11-21T00:01:28;93.13;;;80.85;;
51292;SDS011;37377;45.186;9.778;2023-11-21T00:04:11;92.70;;;76.13;;
51292;SDS011;37377;45.186;9.778;2023-11-21T00:06:38;93.53;;;76.90;;
51292;SDS011;37377;45.186;9.778;2023-11-21T00:09:05;95.18;;;78.30;;
51292;SDS011;37377;45.186;9.778;2023-11-21T00:11:34;93.93;;;74.85;;
51292;SDS011;37377;45.186;9.778;2023-11-21T00:14:01;94.25;;;75.97;;
51292;SDS011;37377;45.186;9.778;2023-11-21T00:16:36;95.72;;;78.03;;
51292;SDS011;37377;45.186;9.778;2023-11-21T00:19:13;88.72;;;74.35;;
51292;SDS011;37377;45.186;9.778;2023-11-21T00:21:40;87.55;;;75.60;;
51292;SDS011;37377;45.186;9.778;2023-11-21T00:24:37;103.80;;;79.45;;
51292;SDS011;37377;45.186;9.778;2023-11-21T00:27:06;92.82;;;77.88;;
51292;SDS011;37377;45.186;9.778;2023-11-21T00:29:48;107.70;;;78.53;;
51292;SDS011;37377;45.186;9.778;2023-11-21T00:32:17;91.90;;;75.70;;
51292;SDS011;37377;45.186;9.778;2023-11-21T00:34:46;99.72;;;79.68;;
51292;SDS011;37377;45.186;9.778;2023-11-21T00:37:14;91.80;;;77.00;;
51292;SDS011;37377;45.186;9.778;2023-11-21T00:39:56;95.78;;;76.40;;
51292;SDS011;37377;45.186;9.778;2023-11-21T00:42:23;96.97;;;76.07;;
51292;SDS011;37377;45.186;9.778;2023-11-21T00:44:54;97.05;;;76.40;;
51292;SDS011;37377;45.186;9.778;2023-11-21T00:47:21;90.15;;;75.57;;
51292;SDS011;37377;45.186;9.778;2023-11-21T00:49:51;92.00;;;74.47;;
51292;SDS011;37377;45.186;9.778;2023-11-21T00:52:22;93.97;;;75.32;;
51292;SDS011;37377;45.186;9.778;2023-11-21T00:54:49;91.95;;;76.32;;
51292;SDS011;37377;45.186;9.778;2023-11-21T00:57:35;95.78;;;74.10;;
51292;SDS011;37377;45.186;9.778;2023-11-21T01:00:05;91.50;;;73.30;;
51292;SDS011;37377;45.186;9.778;2023-11-21T01:03:08;90.72;;;74.07;;
51292;SDS011;37377;45.186;9.778;2023-11-21T01:05:47;92.80;;;72.93;;
51292;SDS011;37377;45.186;9.778;2023-11-21T01:08:31;94.40;;;76.32;;
51292;SDS011;37377;45.186;9.778;2023-11-21T01:10:59;88.13;;;73.53;;
51292;SDS011;37377;45.186;9.778;2023-11-21T01:13:32;92.55;;;71.35;;
51292;SDS011;37377;45.186;9.778;2023-11-21T01:16:00;99.20;;;73.53;;
51292;SDS011;37377;45.186;9.778;2023-11-21T01:18:30;94.18;;;72.15;;
51292;SDS011;37377;45.186;9.778;2023-11-21T01:21:02;93.72;;;73.13;;
51292;SDS011;37377;45.186;9.778;2023-11-21T01:23:52;89.97;;;71.13;;
51292;SDS011;37377;45.186;9.778;2023-11-21T01:26:34;88.60;;;70.57;;
51292;SDS011;37377;45.186;9.778;2023-11-21T01:29:11;88.53;;;69.22;;
51292;SDS011;37377;45.186;9.778;2023-11-21T01:31:41;83.40;;;66.63;;
51292;SDS011;37377;45.186;9.778;2023-11-21T01:34:28;82.10;;;63.10;;
51292;SDS011;37377;45.186;9.778;2023-11-21T01:36:59;83.72;;;61.95;;
51292;SDS011;37377;45.186;9.778;2023-11-21T01:39:52;79.45;;;60.92;;
51292;SDS011;37377;45.186;9.778;2023-11-21T01:42:32;85.28;;;63.22;;
51292;SDS011;37377;45.186;9.778;2023-11-21T01:45:04;85.32;;;61.95;;
51292;SDS011;37377;45.186;9.778;2023-11-21T01:47:38;79.30;;;59.47;;
51292;SDS011;37377;45.186;9.778;2023-11-21T01:50:15;76.78;;;60.80;;
51292;SDS011;37377;45.186;9.778;2023-11-21T01:52:48;74.10;;;57.58;;
51292;SDS011;37377;45.186;9.778;2023-11-21T01:55:16;80.40;;;58.97;;
51292;SDS011;37377;45.186;9.778;2023-11-21T01:57:54;75.13;;;56.78;;
51292;SDS011;37377;45.186;9.778;2023-11-21T02:00:23;74.13;;;55.97;;
51292;SDS011;37377;45.186;9.778;2023-11-21T02:02:50;69.38;;;53.88;;
51292;SDS011;37377;45.186;9.778;2023-11-21T02:05:23;66.90;;;53.17;;
51292;SDS011;37377;45.186;9.778;2023-11-21T02:07:50;75.75;;;53.30;;
51292;SDS011;37377;45.186;9.778;2023-11-21T02:10:19;76.22;;;54.08;;
51292;SDS011;37377;45.186;9.778;2023-11-21T02:12:53;77.97;;;53.72;;
51292;SDS011;37377;45.186;9.778;2023-11-21T02:15:30;77.75;;;53.13;;
51292;SDS011;37377;45.186;9.778;2023-11-21T02:18:04;73.43;;;53.75;;
51292;SDS011;37377;45.186;9.778;2023-11-21T02:21:03;69.43;;;50.85;;
51292;SDS011;37377;45.186;9.778;2023-11-21T02:24:02;72.28;;;50.92;;
51292;SDS011;37377;45.186;9.778;2023-11-21T02:26:29;64.38;;;49.53;;
51292;SDS011;37377;45.186;9.778;2023-11-21T02:28:56;69.72;;;49.75;;
51292;SDS011;37377;45.186;9.778;2023-11-21T02:31:32;69.80;;;48.72;;
51292;SDS011;37377;45.186;9.778;2023-11-21T02:34:47;66.75;;;47.78;;
51292;SDS011;37377;45.186;9.778;2023-11-21T02:37:14;63.58;;;45.60;;
51292;SDS011;37377;45.186;9.778;2023-11-21T02:39:42;67.22;;;44.08;;
51292;SDS011;37377;45.186;9.778;2023-11-21T02:42:09;64.65;;;44.53;;
51292;SDS011;37377;45.186;9.778;2023-11-21T02:45:54;65.65;;;46.55;;
51292;SDS011;37377;45.186;9.778;2023-11-21T02:48:21;64.50;;;45.83;;
51292;SDS011;37377;45.186;9.778;2023-11-21T02:50:50;60.50;;;43.83;;
51292;SDS011;37377;45.186;9.778;2023-11-21T02:53:20;62.22;;;44.42;;
51292;SDS011;37377;45.186;9.778;2023-11-21T02:55:46;58.67;;;43.05;;
51292;SDS011;37377;45.186;9.778;2023-11-21T02:59:10;57.65;;;43.22;;
51292;SDS011;37377;45.186;9.778;2023-11-21T03:01:37;63.28;;;44.88;;
51292;SDS011;37377;45.186;9.778;2023-11-21T03:04:04;55.80;;;43.08;;
51292;SDS011;37377;45.186;9.778;2023-11-21T03:06:32;61.88;;;44.72;;
51292;SDS011;37377;45.186;9.778;2023-11-21T03:09:00;63.67;;;43.80;;
51292;SDS011;37377;45.186;9.778;2023-11-21T03:11:27;61.60;;;43.83;;
51292;SDS011;37377;45.186;9.778;2023-11-21T03:13:54;63.05;;;44.08;;
51292;SDS011;37377;45.186;9.778;2023-11-21T03:16:21;61.90;;;44.83;;
51292;SDS011;37377;45.186;9.778;2023-11-21T03:18:48;65.63;;;45.92;;
51292;SDS011;37377;45.186;9.778;2023-11-21T03:21:15;60.75;;;46.22;;
51292;SDS011;37377;45.186;9.778;2023-11-21T03:23:41;65.25;;;45.53;;
51292;SDS011;37377;45.186;9.778;2023-11-21T03:26:11;64.50;;;47.30;;
51292;SDS011;37377;45.186;9.778;2023-11-21T03:28:39;74.38;;;49.90;;
51292;SDS011;37377;45.186;9.778;2023-11-21T03:31:07;69.63;;;49.47;;
51292;SDS011;37377;45.186;9.778;2023-11-21T03:33:35;66.57;;;48.10;;
51292;SDS011;37377;45.186;9.778;2023-11-21T03:36:02;66.10;;;47.03;;
51292;SDS011;37377;45.186;9.778;2023-11-21T03:38:30;67.40;;;47.17;;
51292;SDS011;37377;45.186;9.778;2023-11-21T03:40:57;64.90;;;48.47;;
51292;SDS011;37377;45.186;9.778;2023-11-21T03:43:24;69.15;;;48.25;;
51292;SDS011;37377;45.186;9.778;2023-11-21T03:45:51;59.78;;;46.58;;
51292;SDS011;37377;45.186;9.778;2023-11-21T03:48:18;61.63;;;46.58;;
51292;SDS011;37377;45.186;9.778;2023-11-21T03:50:45;58.70;;;46.05;;
51292;SDS011;37377;45.186;9.778;2023-11-21T03:53:13;61.70;;;47.88;;
51292;SDS011;37377;45.186;9.778;2023-11-21T03:55:40;67.10;;;47.08;;
51292;SDS011;37377;45.186;9.778;2023-11-21T03:58:07;65.53;;;48.10;;
51292;SDS011;37377;45.186;9.778;2023-11-21T04:00:34;62.50;;;48.83;;
51292;SDS011;37377;45.186;9.778;2023-11-21T04:03:01;67.22;;;47.58;;
51292;SDS011;37377;45.186;9.778;2023-11-21T04:05:28;71.25;;;48.75;;
51292;SDS011;37377;45.186;9.778;2023-11-21T04:07:55;63.58;;;47.25;;
51292;SDS011;37377;45.186;9.778;2023-11-21T04:10:22;65.22;;;46.83;;
51292;SDS011;37377;45.186;9.778;2023-11-21T04:12:49;68.40;;;49.58;;
51292;SDS011;37377;45.186;9.778;2023-11-21T04:15:16;70.43;;;50.60;;
51292;SDS011;37377;45.186;9.778;2023-11-21T04:17:43;66.85;;;50.10;;
51292;SDS011;37377;45.186;9.778;2023-11-21T04:20:19;68.07;;;49.22;;
51292;SDS011;37377;45.186;9.778;2023-11-21T04:22:48;67.30;;;50.25;;
51292;SDS011;37377;45.186;9.778;2023-11-21T04:25:15;73.28;;;51.40;;
51292;SDS011;37377;45.186;9.778;2023-11-21T04:27:44;63.67;;;50.22;;
51292;SDS011;37377;45.186;9.778;2023-11-21T04:30:12;69.88;;;52.00;;
51292;SDS011;37377;45.186;9.778;2023-11-21T04:32:42;69.57;;;51.78;;
51292;SDS011;37377;45.186;9.778;2023-11-21T04:35:09;73.22;;;51.65;;
51292;SDS011;37377;45.186;9.778;2023-11-21T04:37:54;65.88;;;49.10;;
51292;SDS011;37377;45.186;9.778;2023-11-21T04:40:52;65.28;;;49.90;;
51292;SDS011;37377;45.186;9.778;2023-11-21T04:43:21;64.75;;;49.15;;
51292;SDS011;37377;45.186;9.778;2023-11-21T04:46:56;64.40;;;49.75;;
51292;SDS011;37377;45.186;9.778;2023-11-21T04:49:51;65.45;;;46.85;;
51292;SDS011;37377;45.186;9.778;2023-11-21T04:52:18;62.70;;;46.70;;
51292;SDS011;37377;45.186;9.778;2023-11-21T04:54:46;62.88;;;44.55;;
51292;SDS011;37377;45.186;9.778;2023-11-21T04:57:14;67.50;;;44.78;;
51292;SDS011;37377;45.186;9.778;2023-11-21T04:59:44;63.28;;;44.15;;
51292;SDS011;37377;45.186;9.778;2023-11-21T05:02:11;62.03;;;44.78;;
51292;SDS011;37377;45.186;9.778;2023-11-21T05:04:58;60.45;;;44.47;;
51292;SDS011;37377;45.186;9.778;2023-11-21T05:07:25;82.57;;;53.83;;
51292;SDS011;37377;45.186;9.778;2023-11-21T05:09:58;88.90;;;58.78;;
51292;SDS011;37377;45.186;9.778;2023-11-21T05:12:25;72.38;;;48.83;;
51292;SDS011;37377;45.186;9.778;2023-11-21T05:14:53;67.53;;;48.08;;
51292;SDS011;37377;45.186;9.778;2023-11-21T05:17:20;61.90;;;47.15;;
51292;SDS011;37377;45.186;9.778;2023-11-21T05:19:47;67.97;;;46.58;;
51292;SDS011;37377;45.186;9.778;2023-11-21T05:22:16;58.97;;;45.22;;
51292;SDS011;37377;45.186;9.778;2023-11-21T05:24:42;62.53;;;47.17;;
51292;SDS011;37377;45.186;9.778;2023-11-21T05:27:09;69.28;;;49.28;;
51292;SDS011;37377;45.186;9.778;2023-11-21T05:29:36;67.70;;;49.03;;
51292;SDS011;37377;45.186;9.778;2023-11-21T05:32:04;61.67;;;48.33;;
51292;SDS011;37377;45.186;9.778;2023-11-21T05:34:31;63.75;;;49.08;;
51292;SDS011;37377;45.186;9.778;2023-11-21T05:36:58;73.22;;;49.35;;
51292;SDS011;37377;45.186;9.778;2023-11-21T05:39:25;68.35;;;49.97;;
51292;SDS011;37377;45.186;9.778;2023-11-21T05:41:52;68.45;;;53.17;;
51292;SDS011;37377;45.186;9.778;2023-11-21T05:44:19;78.43;;;56.08;;
51292;SDS011;37377;45.186;9.778;2023-11-21T05:46:46;64.50;;;49.67;;
51292;SDS011;37377;45.186;9.778;2023-11-21T05:49:12;61.90;;;48.17;;
51292;SDS011;37377;45.186;9.778;2023-11-21T05:51:39;67.20;;;50.58;;
51292;SDS011;37377;45.186;9.778;2023-11-21T05:54:06;68.13;;;49.30;;
51292;SDS011;37377;45.186;9.778;2023-11-21T05:56:34;69.13;;;49.20;;
51292;SDS011;37377;45.186;9.778;2023-11-21T05:59:01;67.07;;;49.60;;
51292;SDS011;37377;45.186;9.778;2023-11-21T06:01:29;70.32;;;50.17;;
51292;SDS011;37377;45.186;9.778;2023-11-21T06:03:56;70.07;;;51.45;;
51292;SDS011;37377;45.186;9.778;2023-11-21T06:06:24;67.10;;;50.80;;
51292;SDS011;37377;45.186;9.778;2023-11-21T06:08:51;69.63;;;50.20;;
51292;SDS011;37377;45.186;9.778;2023-11-21T06:11:18;61.65;;;50.78;;
51292;SDS011;37377;45.186;9.778;2023-11-21T06:13:45;67.53;;;49.75;;
51292;SDS011;37377;45.186;9.778;2023-11-21T06:16:12;73.07;;;50.60;;
51292;SDS011;37377;45.186;9.778;2023-11-21T06:18:43;67.80;;;49.42;;
51292;SDS011;37377;45.186;9.778;2023-11-21T06:21:10;72.80;;;52.55;;
51292;SDS011;37377;45.186;9.778;2023-11-21T06:23:37;69.03;;;51.08;;
51292;SDS011;37377;45.186;9.778;2023-11-21T06:26:04;75.85;;;53.78;;
51292;SDS011;37377;45.186;9.778;2023-11-21T06:28:32;75.05;;;54.22;;
51292;SDS011;37377;45.186;9.778;2023-11-21T06:30:59;68.47;;;51.72;;
51292;SDS011;37377;45.186;9.778;2023-11-21T06:33:31;64.22;;;50.83;;
51292;SDS011;37377;45.186;9.778;2023-11-21T06:35:58;64.85;;;50.60;;
51292;SDS011;37377;45.186;9.778;2023-11-21T06:38:26;77.18;;;55.22;;
51292;SDS011;37377;45.186;9.778;2023-11-21T06:40:56;67.47;;;52.45;;
51292;SDS011;37377;45.186;9.778;2023-11-21T06:43:25;68.30;;;52.20;;
51292;SDS011;37377;45.186;9.778;2023-11-21T06:45:53;69.60;;;51.97;;
51292;SDS011;37377;45.186;9.778;2023-11-21T06:48:20;73.88;;;53.47;;
51292;SDS011;37377;45.186;9.778;2023-11-21T06:50:47;69.38;;;53.10;;
51292;SDS011;37377;45.186;9.778;2023-11-21T06:53:14;70.20;;;54.42;;
51292;SDS011;37377;45.186;9.778;2023-11-21T06:55:41;70.18;;;53.65;;
51292;SDS011;37377;45.186;9.778;2023-11-21T06:58:08;76.68;;;56.03;;
51292;SDS011;37377;45.186;9.778;2023-11-21T07:00:35;72.43;;;54.03;;
51292;SDS011;37377;45.186;9.778;2023-11-21T07:03:02;81.13;;;58.55;;
51292;SDS011;37377;45.186;9.778;2023-11-21T07:05:29;77.18;;;57.90;;
51292;SDS011;37377;45.186;9.778;2023-11-21T07:07:56;81.25;;;56.63;;
51292;SDS011;37377;45.186;9.778;2023-11-21T07:10:23;80.07;;;59.83;;
51292;SDS011;37377;45.186;9.778;2023-11-21T07:12:49;84.28;;;58.17;;
51292;SDS011;37377;45.186;9.778;2023-11-21T07:15:17;80.75;;;59.20;;
51292;SDS011;37377;45.186;9.778;2023-11-21T07:17:46;76.72;;;56.90;;
51292;SDS011;37377;45.186;9.778;2023-11-21T07:20:15;74.53;;;57.15;;
51292;SDS011;37377;45.186;9.778;2023-11-21T07:22:44;79.35;;;60.40;;
51292;SDS011;37377;45.186;9.778;2023-11-21T07:25:11;82.32;;;65.38;;
51292;SDS011;37377;45.186;9.778;2023-11-21T07:27:38;84.85;;;66.10;;
51292;SDS011;37377;45.186;9.778;2023-11-21T07:30:05;79.90;;;63.97;;
51292;SDS011;37377;45.186;9.778;2023-11-21T07:32:34;86.22;;;67.90;;
51292;SDS011;37377;45.186;9.778;2023-11-21T07:35:01;83.13;;;63.25;;
51292;SDS011;37377;45.186;9.778;2023-11-21T07:37:28;89.25;;;62.53;;
51292;SDS011;37377;45.186;9.778;2023-11-21T07:39:55;75.35;;;58.28;;
51292;SDS011;37377;45.186;9.778;2023-11-21T07:42:23;81.75;;;60.88;;
51292;SDS011;37377;45.186;9.778;2023-11-21T07:44:51;85.78;;;61.47;;
51292;SDS011;37377;45.186;9.778;2023-11-21T07:47:18;84.35;;;60.75;;
51292;SDS011;37377;45.186;9.778;2023-11-21T07:49:45;83.03;;;59.33;;
51292;SDS011;37377;45.186;9.778;2023-11-21T07:52:13;81.80;;;60.53;;
51292;SDS011;37377;45.186;9.778;2023-11-21T07:54:42;75.80;;;59.08;;
51292;SDS011;37377;45.186;9.778;2023-11-21T07:57:09;75.57;;;59.38;;
51292;SDS011;37377;45.186;9.778;2023-11-21T07:59:40;76.03;;;58.25;;
51292;SDS011;37377;45.186;9.778;2023-11-21T08:02:07;82.78;;;58.35;;
51292;SDS011;37377;45.186;9.778;2023-11-21T08:04:34;79.95;;;56.55;;
51292;SDS011;37377;45.186;9.778;2023-11-21T08:07:02;74.63;;;58.38;;
51292;SDS011;37377;45.186;9.778;2023-11-21T08:09:30;79.93;;;56.97;;
51292;SDS011;37377;45.186;9.778;2023-11-21T08:11:57;76.97;;;57.40;;
51292;SDS011;37377;45.186;9.778;2023-11-21T08:14:24;72.32;;;57.55;;
51292;SDS011;37377;45.186;9.778;2023-11-21T08:16:51;74.65;;;55.92;;
51292;SDS011;37377;45.186;9.778;2023-11-21T08:19:19;79.32;;;57.28;;
51292;SDS011;37377;45.186;9.778;2023-11-21T08:21:45;80.35;;;57.42;;
51292;SDS011;37377;45.186;9.778;2023-11-21T08:24:12;77.88;;;56.67;;
51292;SDS011;37377;45.186;9.778;2023-11-21T08:26:39;76.32;;;56.78;;
51292;SDS011;37377;45.186;9.778;2023-11-21T08:29:05;79.40;;;56.88;;
51292;SDS011;37377;45.186;9.778;2023-11-21T08:31:33;72.70;;;54.65;;
51292;SDS011;37377;45.186;9.778;2023-11-21T08:34:01;78.45;;;54.92;;
51292;SDS011;37377;45.186;9.778;2023-11-21T08:36:29;72.05;;;55.33;;
51292;SDS011;37377;45.186;9.778;2023-11-21T08:38:58;73.07;;;53.13;;
51292;SDS011;37377;45.186;9.778;2023-11-21T08:41:24;80.70;;;54.55;;
51292;SDS011;37377;45.186;9.778;2023-11-21T08:43:51;78.95;;;55.58;;
51292;SDS011;37377;45.186;9.778;2023-11-21T08:46:18;72.05;;;55.20;;
51292;SDS011;37377;45.186;9.778;2023-11-21T08:48:46;83.30;;;56.92;;
51292;SDS011;37377;45.186;9.778;2023-11-21T08:51:13;73.53;;;54.45;;
51292;SDS011;37377;45.186;9.778;2023-11-21T08:53:43;78.38;;;56.50;;
51292;SDS011;37377;45.186;9.778;2023-11-21T08:56:13;73.38;;;54.80;;
51292;SDS011;37377;45.186;9.778;2023-11-21T08:58:43;71.63;;;54.85;;
51292;SDS011;37377;45.186;9.778;2023-11-21T09:01:10;77.20;;;56.65;;
51292;SDS011;37377;45.186;9.778;2023-11-21T09:03:39;74.32;;;55.50;;
51292;SDS011;37377;45.186;9.778;2023-11-21T09:06:07;73.20;;;54.88;;
51292;SDS011;37377;45.186;9.778;2023-11-21T09:08:36;71.15;;;54.70;;
51292;SDS011;37377;45.186;9.778;2023-11-21T09:11:04;75.22;;;56.38;;
51292;SDS011;37377;45.186;9.778;2023-11-21T09:13:32;80.20;;;60.70;;
51292;SDS011;37377;45.186;9.778;2023-11-21T09:15:58;69.72;;;55.78;;
51292;SDS011;37377;45.186;9.778;2023-11-21T09:18:25;88.57;;;59.75;;
51292;SDS011;37377;45.186;9.778;2023-11-21T09:20:52;86.63;;;58.28;;
51292;SDS011;37377;45.186;9.778;2023-11-21T09:23:19;69.55;;;55.55;;
51292;SDS011;37377;45.186;9.778;2023-11-21T09:25:47;79.25;;;57.97;;
51292;SDS011;37377;45.186;9.778;2023-11-21T09:28:16;75.72;;;57.72;;
51292;SDS011;37377;45.186;9.778;2023-11-21T09:30:44;74.70;;;58.08;;
51292;SDS011;37377;45.186;9.778;2023-11-21T09:33:10;85.50;;;58.53;;
51292;SDS011;37377;45.186;9.778;2023-11-21T09:35:37;76.57;;;59.15;;
51292;SDS011;37377;45.186;9.778;2023-11-21T09:38:04;84.18;;;60.45;;
51292;SDS011;37377;45.186;9.778;2023-11-21T09:40:37;80.68;;;61.00;;
51292;SDS011;37377;45.186;9.778;2023-11-21T09:43:06;80.55;;;60.83;;
51292;SDS011;37377;45.186;9.778;2023-11-21T09:45:46;81.93;;;61.28;;
51292;SDS011;37377;45.186;9.778;2023-11-21T09:48:17;79.63;;;60.17;;
51292;SDS011;37377;45.186;9.778;2023-11-21T09:50:44;91.63;;;60.65;;
51292;SDS011;37377;45.186;9.778;2023-11-21T09:53:19;85.50;;;62.42;;
51292;SDS011;37377;45.186;9.778;2023-11-21T09:55:53;80.05;;;63.20;;
51292;SDS011;37377;45.186;9.778;2023-11-21T09:58:21;76.28;;;60.28;;
51292;SDS011;37377;45.186;9.778;2023-11-21T10:00:52;75.13;;;60.63;;
51292;SDS011;37377;45.186;9.778;2023-11-21T10:03:22;71.93;;;58.10;;
51292;SDS011;37377;45.186;9.778;2023-11-21T10:05:50;78.07;;;59.97;;
51292;SDS011;37377;45.186;9.778;2023-11-21T10:08:17;77.57;;;59.30;;
51292;SDS011;37377;45.186;9.778;2023-11-21T10:10:46;77.88;;;60.05;;
51292;SDS011;37377;45.186;9.778;2023-11-21T10:13:18;74.22;;;61.55;;
51292;SDS011;37377;45.186;9.778;2023-11-21T10:15:49;80.85;;;61.63;;
51292;SDS011;37377;45.186;9.778;2023-11-21T10:18:17;76.53;;;60.63;;
51292;SDS011;37377;45.186;9.778;2023-11-21T10:20:46;76.75;;;60.70;;
51292;SDS011;37377;45.186;9.778;2023-11-21T10:23:21;83.93;;;63.00;;
51292;SDS011;37377;45.186;9.778;2023-11-21T10:25:53;76.35;;;64.20;;
51292;SDS011;37377;45.186;9.778;2023-11-21T10:28:23;75.95;;;61.88;;
51292;SDS011;37377;45.186;9.778;2023-11-21T10:30:50;79.18;;;62.70;;
51292;SDS011;37377;45.186;9.778;2023-11-21T10:33:21;87.47;;;62.45;;
51292;SDS011;37377;45.186;9.778;2023-11-21T10:35:55;78.03;;;63.88;;
51292;SDS011;37377;45.186;9.778;2023-11-21T10:38:22;83.63;;;62.85;;
51292;SDS011;37377;45.186;9.778;2023-11-21T10:40:50;73.70;;;60.58;;
51292;SDS011;37377;45.186;9.778;2023-11-21T10:43:19;78.53;;;63.60;;
51292;SDS011;37377;45.186;9.778;2023-11-21T10:45:46;79.57;;;62.63;;
51292;SDS011;37377;45.186;9.778;2023-11-21T10:48:13;75.65;;;61.45;;
51292;SDS011;37377;45.186;9.778;2023-11-21T10:50:45;76.70;;;60.78;;
51292;SDS011;37377;45.186;9.778;2023-11-21T10:53:13;79.20;;;60.17;;
51292;SDS011;37377;45.186;9.778;2023-11-21T10:55:41;77.72;;;59.78;;
51292;SDS011;37377;45.186;9.778;2023-11-21T10:58:10;83.50;;;61.58;;
51292;SDS011;37377;45.186;9.778;2023-11-21T11:00:39;74.78;;;60.22;;
51292;SDS011;37377;45.186;9.778;2023-11-21T11:03:07;73.57;;;58.55;;
51292;SDS011;37377;45.186;9.778;2023-11-21T11:05:43;74.63;;;59.78;;
51292;SDS011;37377;45.186;9.778;2023-11-21T11:08:20;69.30;;;58.30;;
51292;SDS011;37377;45.186;9.778;2023-11-21T11:10:53;77.75;;;59.88;;
51292;SDS011;37377;45.186;9.778;2023-11-21T11:13:20;74.63;;;57.55;;
51292;SDS011;37377;45.186;9.778;2023-11-21T11:15:48;77.88;;;62.17;;
51292;SDS011;37377;45.186;9.778;2023-11-21T11:18:15;82.07;;;61.20;;
51292;SDS011;37377;45.186;9.778;2023-11-21T11:20:43;73.88;;;58.60;;
51292;SDS011;37377;45.186;9.778;2023-11-21T11:28:20;80.30;;;61.08;;
51292;SDS011;37377;45.186;9.778;2023-11-21T11:36:34;70.68;;;57.72;;
51292;SDS011;37377;45.186;9.778;2023-11-21T11:39:03;78.57;;;57.22;;
51292;SDS011;37377;45.186;9.778;2023-11-21T11:41:32;71.93;;;56.47;;
51292;SDS011;37377;45.186;9.778;2023-11-21T11:44:01;73.13;;;56.50;;
51292;SDS011;37377;45.186;9.778;2023-11-21T11:46:43;75.05;;;54.75;;
51292;SDS011;37377;45.186;9.778;2023-11-21T11:49:24;81.38;;;59.95;;
51292;SDS011;37377;45.186;9.778;2023-11-21T11:52:55;73.60;;;56.75;;
51292;SDS011;37377;45.186;9.778;2023-11-21T11:55:02;74.95;;;55.65;;
51292;SDS011;37377;45.186;9.778;2023-11-21T11:57:40;71.47;;;57.40;;
51292;SDS011;37377;45.186;9.778;2023-11-21T12:00:15;72.38;;;55.35;;
51292;SDS011;37377;45.186;9.778;2023-11-21T12:02:48;74.65;;;55.63;;
51292;SDS011;37377;45.186;9.778;2023-11-21T12:05:19;77.22;;;54.10;;
51292;SDS011;37377;45.186;9.778;2023-11-21T12:10:24;77.78;;;56.03;;
51292;SDS011;37377;45.186;9.778;2023-11-21T12:15:22;77.80;;;54.85;;
51292;SDS011;37377;45.186;9.778;2023-11-21T12:17:49;77.53;;;57.35;;
51292;SDS011;37377;45.186;9.778;2023-11-21T12:20:21;78.20;;;51.33;;
51292;SDS011;37377;45.186;9.778;2023-11-21T12:22:49;73.22;;;49.75;;
51292;SDS011;37377;45.186;9.778;2023-11-21T12:25:18;74.20;;;49.22;;
51292;SDS011;37377;45.186;9.778;2023-11-21T12:27:47;72.82;;;50.60;;
51292;SDS011;37377;45.186;9.778;2023-11-21T12:30:24;67.55;;;49.97;;
51292;SDS011;37377;45.186;9.778;2023-11-21T12:32:55;73.03;;;52.05;;
51292;SDS011;37377;45.186;9.778;2023-11-21T12:35:24;73.10;;;50.75;;
51292;SDS011;37377;45.186;9.778;2023-11-21T12:37:52;74.82;;;53.55;;
51292;SDS011;37377;45.186;9.778;2023-11-21T12:40:20;71.60;;;52.72;;
51292;SDS011;37377;45.186;9.778;2023-11-21T12:42:53;71.63;;;53.03;;
51292;SDS011;37377;45.186;9.778;2023-11-21T12:45:22;76.78;;;54.10;;
51292;SDS011;37377;45.186;9.778;2023-11-21T12:47:56;77.47;;;53.95;;
51292;SDS011;37377;45.186;9.778;2023-11-21T12:50:27;79.45;;;51.80;;
51292;SDS011;37377;45.186;9.778;2023-11-21T12:52:59;73.30;;;50.35;;
51292;SDS011;37377;45.186;9.778;2023-11-21T12:57:57;74.47;;;51.20;;
51292;SDS011;37377;45.186;9.778;2023-11-21T13:00:29;71.45;;;51.28;;
51292;SDS011;37377;45.186;9.778;2023-11-21T13:03:00;71.13;;;50.83;;
51292;SDS011;37377;45.186;9.778;2023-11-21T13:05:32;83.88;;;51.92;;
51292;SDS011;37377;45.186;9.778;2023-11-21T13:08:01;76.30;;;52.03;;
51292;SDS011;37377;45.186;9.778;2023-11-21T13:10:30;80.38;;;51.55;;
51292;SDS011;37377;45.186;9.778;2023-11-21T13:12:58;77.93;;;50.67;;
51292;SDS011;37377;45.186;9.778;2023-11-21T13:15:27;77.30;;;51.60;;
51292;SDS011;37377;45.186;9.778;2023-11-21T13:17:54;75.32;;;47.78;;
51292;SDS011;37377;45.186;9.778;2023-11-21T13:20:24;67.93;;;48.47;;
51292;SDS011;37377;45.186;9.778;2023-11-21T13:22:55;74.22;;;49.45;;
51292;SDS011;37377;45.186;9.778;2023-11-21T13:25:28;73.18;;;48.20;;
51292;SDS011;37377;45.186;9.778;2023-11-21T13:27:55;83.80;;;49.78;;
51292;SDS011;37377;45.186;9.778;2023-11-21T13:30:22;79.50;;;49.85;;
51292;SDS011;37377;45.186;9.778;2023-11-21T13:32:53;77.07;;;49.30;;
51292;SDS011;37377;45.186;9.778;2023-11-21T13:35:23;73.45;;;49.15;;
51292;SDS011;37377;45.186;9.778;2023-11-21T13:38:04;72.95;;;50.65;;
51292;SDS011;37377;45.186;9.778;2023-11-21T13:40:33;79.57;;;48.80;;
51292;SDS011;37377;45.186;9.778;2023-11-21T13:43:09;82.22;;;48.80;;
51292;SDS011;37377;45.186;9.778;2023-11-21T13:45:37;84.10;;;50.50;;
51292;SDS011;37377;45.186;9.778;2023-11-21T13:48:10;83.90;;;51.78;;
51292;SDS011;37377;45.186;9.778;2023-11-21T13:50:47;84.90;;;52.45;;
51292;SDS011;37377;45.186;9.778;2023-11-21T13:53:25;75.53;;;50.55;;
51292;SDS011;37377;45.186;9.778;2023-11-21T13:55:52;77.43;;;50.08;;
51292;SDS011;37377;45.186;9.778;2023-11-21T13:58:26;82.72;;;51.45;;
51292;SDS011;37377;45.186;9.778;2023-11-21T14:01:08;81.30;;;50.88;;
51292;SDS011;37377;45.186;9.778;2023-11-21T14:03:51;92.30;;;52.17;;
51292;SDS011;37377;45.186;9.778;2023-11-21T14:06:27;85.72;;;52.00;;
51292;SDS011;37377;45.186;9.778;2023-11-21T14:09:01;79.28;;;51.33;;
51292;SDS011;37377;45.186;9.778;2023-11-21T14:11:32;72.80;;;49.55;;
51292;SDS011;37377;45.186;9.778;2023-11-21T14:14:09;82.03;;;49.28;;
51292;SDS011;37377;45.186;9.778;2023-11-21T14:16:36;85.93;;;50.45;;
51292;SDS011;37377;45.186;9.778;2023-11-21T14:19:03;93.07;;;51.10;;
51292;SDS011;37377;45.186;9.778;2023-11-21T14:21:45;86.30;;;50.63;;
51292;SDS011;37377;45.186;9.778;2023-11-21T14:24:15;82.63;;;51.75;;
51292;SDS011;37377;45.186;9.778;2023-11-21T14:26:45;77.28;;;51.03;;
51292;SDS011;37377;45.186;9.778;2023-11-21T14:29:13;69.07;;;49.53;;
51292;SDS011;37377;45.186;9.778;2023-11-21T14:31:43;78.20;;;50.58;;
51292;SDS011;37377;45.186;9.778;2023-11-21T14:34:10;80.50;;;50.78;;
51292;SDS011;37377;45.186;9.778;2023-11-21T14:36:38;91.32;;;51.90;;
51292;SDS011;37377;45.186;9.778;2023-11-21T14:39:06;80.18;;;54.80;;
51292;SDS011;37377;45.186;9.778;2023-11-21T14:41:42;83.72;;;52.08;;
51292;SDS011;37377;45.186;9.778;2023-11-21T14:44:11;79.35;;;50.80;;
51292;SDS011;37377;45.186;9.778;2023-11-21T14:46:38;84.00;;;51.65;;
51292;SDS011;37377;45.186;9.778;2023-11-21T14:49:11;84.25;;;52.75;;
51292;SDS011;37377;45.186;9.778;2023-11-21T14:51:47;85.00;;;54.13;;
51292;SDS011;37377;45.186;9.778;2023-11-21T14:57:01;90.93;;;55.20;;
51292;SDS011;37377;45.186;9.778;2023-11-21T14:59:28;84.22;;;55.10;;
51292;SDS011;37377;45.186;9.778;2023-11-21T15:01:56;85.07;;;55.72;;
51292;SDS011;37377;45.186;9.778;2023-11-21T15:04:24;92.45;;;54.95;;